sensor_id;sensor_type;location;lat;lon;timestamp;P1;durP1;ratioP1;P2;durP2;ratioP2
71896;SDS011;59767;51.344;12.362;2023-02-01T00:00:45;15.77;;;4.43;;
71896;SDS011;59767;51.344;12.362;2023-02-01T00:03:49;13.45;;;4.00;;
71896;SDS011;59767;51.344;12.362;2023-02-01T00:06:54;16.50;;;4.20;;
71896;SDS011;59767;51.344;12.362;2023-02-01T00:09:58;14.95;;;3.83;;
71896;SDS011;59767;51.344;12.362;2023-02-01T00:13:02;16.92;;;3.92;;
71896;SDS011;59767;51.344;12.362;2023-02-01T00:16:10;15.68;;;3.80;;
71896;SDS011;59767;51.344;12.362;2023-02-01T00:19:18;17.40;;;3.83;;
71896;SDS011;59767;51.344;12.362;2023-02-01T00:22:22;19.52;;;3.80;;
71896;SDS011;59767;51.344;12.362;2023-02-01T00:25:27;17.98;;;3.60;;
71896;SDS011;59767;51.344;12.362;2023-02-01T00:28:31;16.67;;;3.58;;
71896;SDS011;59767;51.344;12.362;2023-02-01T00:31:35;13.25;;;3.60;;
71896;SDS011;59767;51.344;12.362;2023-02-01T00:34:40;18.73;;;3.60;;
71896;SDS011;59767;51.344;12.362;2023-02-01T00:37:45;17.55;;;3.33;;
71896;SDS011;59767;51.344;12.362;2023-02-01T00:40:49;16.30;;;3.42;;
71896;SDS011;59767;51.344;12.362;2023-02-01T00:43:53;18.00;;;3.20;;
71896;SDS011;59767;51.344;12.362;2023-02-01T00:46:57;20.48;;;3.60;;
71896;SDS011;59767;51.344;12.362;2023-02-01T00:50:02;17.45;;;2.83;;
71896;SDS011;59767;51.344;12.362;2023-02-01T00:53:06;13.20;;;2.90;;
71896;SDS011;59767;51.344;12.362;2023-02-01T00:56:11;18.52;;;2.75;;
71896;SDS011;59767;51.344;12.362;2023-02-01T00:59:15;18.52;;;3.30;;
71896;SDS011;59767;51.344;12.362;2023-02-01T01:02:20;14.10;;;2.25;;
71896;SDS011;59767;51.344;12.362;2023-02-01T01:05:24;14.77;;;2.90;;
71896;SDS011;59767;51.344;12.362;2023-02-01T01:08:28;19.00;;;3.33;;
71896;SDS011;59767;51.344;12.362;2023-02-01T01:11:34;14.80;;;3.20;;
71896;SDS011;59767;51.344;12.362;2023-02-01T01:14:39;17.77;;;3.00;;
71896;SDS011;59767;51.344;12.362;2023-02-01T01:17:43;15.23;;;2.75;;
71896;SDS011;59767;51.344;12.362;2023-02-01T01:20:48;17.13;;;2.90;;
71896;SDS011;59767;51.344;12.362;2023-02-01T01:23:52;17.02;;;3.38;;
71896;SDS011;59767;51.344;12.362;2023-02-01T01:26:56;17.00;;;2.90;;
71896;SDS011;59767;51.344;12.362;2023-02-01T01:30:00;12.77;;;2.65;;
71896;SDS011;59767;51.344;12.362;2023-02-01T01:33:05;15.95;;;3.10;;
71896;SDS011;59767;51.344;12.362;2023-02-01T01:36:10;15.35;;;2.65;;
71896;SDS011;59767;51.344;12.362;2023-02-01T01:39:15;16.38;;;2.75;;
71896;SDS011;59767;51.344;12.362;2023-02-01T01:42:19;16.55;;;2.65;;
71896;SDS011;59767;51.344;12.362;2023-02-01T01:45:25;18.50;;;3.28;;
71896;SDS011;59767;51.344;12.362;2023-02-01T01:48:31;17.45;;;3.45;;
71896;SDS011;59767;51.344;12.362;2023-02-01T01:51:37;24.15;;;2.90;;
71896;SDS011;59767;51.344;12.362;2023-02-01T01:54:45;20.38;;;3.15;;
71896;SDS011;59767;51.344;12.362;2023-02-01T01:57:54;17.75;;;2.97;;
71896;SDS011;59767;51.344;12.362;2023-02-01T02:01:02;17.13;;;2.78;;
71896;SDS011;59767;51.344;12.362;2023-02-01T02:04:06;26.52;;;3.97;;
71896;SDS011;59767;51.344;12.362;2023-02-01T02:07:11;20.50;;;3.05;;
71896;SDS011;59767;51.344;12.362;2023-02-01T02:10:19;22.10;;;2.85;;
71896;SDS011;59767;51.344;12.362;2023-02-01T02:13:25;17.88;;;2.80;;
71896;SDS011;59767;51.344;12.362;2023-02-01T02:16:46;21.20;;;2.88;;
71896;SDS011;59767;51.344;12.362;2023-02-01T02:24:24;17.73;;;2.90;;
71896;SDS011;59767;51.344;12.362;2023-02-01T02:31:36;17.33;;;2.70;;
71896;SDS011;59767;51.344;12.362;2023-02-01T02:38:15;14.00;;;2.90;;
71896;SDS011;59767;51.344;12.362;2023-02-01T02:45:29;14.40;;;2.70;;
71896;SDS011;59767;51.344;12.362;2023-02-01T02:49:05;16.45;;;2.70;;
71896;SDS011;59767;51.344;12.362;2023-02-01T02:52:16;14.93;;;2.38;;
71896;SDS011;59767;51.344;12.362;2023-02-01T02:55:50;22.55;;;2.70;;
71896;SDS011;59767;51.344;12.362;2023-02-01T02:58:56;17.88;;;2.65;;
71896;SDS011;59767;51.344;12.362;2023-02-01T03:02:20;21.83;;;3.75;;
71896;SDS011;59767;51.344;12.362;2023-02-01T03:05:44;17.85;;;2.60;;
71896;SDS011;59767;51.344;12.362;2023-02-01T03:08:52;16.02;;;2.78;;
71896;SDS011;59767;51.344;12.362;2023-02-01T03:12:04;18.77;;;3.00;;
71896;SDS011;59767;51.344;12.362;2023-02-01T03:16:15;23.15;;;3.05;;
71896;SDS011;59767;51.344;12.362;2023-02-01T03:19:21;18.98;;;2.70;;
71896;SDS011;59767;51.344;12.362;2023-02-01T03:22:29;14.68;;;2.53;;
71896;SDS011;59767;51.344;12.362;2023-02-01T03:25:35;17.75;;;2.95;;
71896;SDS011;59767;51.344;12.362;2023-02-01T03:28:39;18.70;;;2.53;;
71896;SDS011;59767;51.344;12.362;2023-02-01T03:31:49;16.02;;;2.60;;
71896;SDS011;59767;51.344;12.362;2023-02-01T03:34:54;23.67;;;3.13;;
71896;SDS011;59767;51.344;12.362;2023-02-01T03:38:01;17.65;;;2.80;;
71896;SDS011;59767;51.344;12.362;2023-02-01T03:44:41;18.67;;;3.08;;
71896;SDS011;59767;51.344;12.362;2023-02-01T03:48:07;15.90;;;2.88;;
71896;SDS011;59767;51.344;12.362;2023-02-01T03:51:13;22.15;;;2.75;;
71896;SDS011;59767;51.344;12.362;2023-02-01T03:54:17;22.38;;;3.53;;
71896;SDS011;59767;51.344;12.362;2023-02-01T03:57:23;23.27;;;3.13;;
71896;SDS011;59767;51.344;12.362;2023-02-01T04:00:33;22.33;;;3.08;;
71896;SDS011;59767;51.344;12.362;2023-02-01T04:03:37;18.65;;;3.30;;
71896;SDS011;59767;51.344;12.362;2023-02-01T04:06:41;18.63;;;2.75;;
71896;SDS011;59767;51.344;12.362;2023-02-01T04:09:45;23.73;;;3.33;;
71896;SDS011;59767;51.344;12.362;2023-02-01T04:12:49;20.20;;;3.22;;
71896;SDS011;59767;51.344;12.362;2023-02-01T04:15:54;18.40;;;3.00;;
71896;SDS011;59767;51.344;12.362;2023-02-01T04:18:58;17.90;;;2.75;;
71896;SDS011;59767;51.344;12.362;2023-02-01T04:22:02;19.50;;;3.03;;
71896;SDS011;59767;51.344;12.362;2023-02-01T04:25:07;24.35;;;3.17;;
71896;SDS011;59767;51.344;12.362;2023-02-01T04:28:11;28.58;;;3.70;;
71896;SDS011;59767;51.344;12.362;2023-02-01T04:31:16;20.25;;;3.05;;
71896;SDS011;59767;51.344;12.362;2023-02-01T04:34:21;19.38;;;3.20;;
71896;SDS011;59767;51.344;12.362;2023-02-01T04:37:26;29.15;;;3.38;;
71896;SDS011;59767;51.344;12.362;2023-02-01T04:40:30;21.85;;;3.25;;
71896;SDS011;59767;51.344;12.362;2023-02-01T04:43:34;22.00;;;3.00;;
71896;SDS011;59767;51.344;12.362;2023-02-01T04:46:39;22.05;;;3.92;;
71896;SDS011;59767;51.344;12.362;2023-02-01T04:49:44;23.67;;;3.63;;
71896;SDS011;59767;51.344;12.362;2023-02-01T04:52:48;23.30;;;3.20;;
71896;SDS011;59767;51.344;12.362;2023-02-01T04:55:52;15.30;;;2.83;;
71896;SDS011;59767;51.344;12.362;2023-02-01T04:58:56;20.98;;;3.00;;
71896;SDS011;59767;51.344;12.362;2023-02-01T05:02:00;27.60;;;3.40;;
71896;SDS011;59767;51.344;12.362;2023-02-01T05:05:04;25.30;;;3.72;;
71896;SDS011;59767;51.344;12.362;2023-02-01T05:08:09;22.30;;;3.05;;
71896;SDS011;59767;51.344;12.362;2023-02-01T05:11:13;21.25;;;3.10;;
71896;SDS011;59767;51.344;12.362;2023-02-01T05:14:36;18.02;;;3.25;;
71896;SDS011;59767;51.344;12.362;2023-02-01T05:17:40;25.67;;;3.90;;
71896;SDS011;59767;51.344;12.362;2023-02-01T05:20:44;26.95;;;3.85;;
71896;SDS011;59767;51.344;12.362;2023-02-01T05:23:49;20.88;;;3.20;;
71896;SDS011;59767;51.344;12.362;2023-02-01T05:27:11;23.00;;;4.05;;
71896;SDS011;59767;51.344;12.362;2023-02-01T05:30:16;19.17;;;3.60;;
71896;SDS011;59767;51.344;12.362;2023-02-01T05:33:20;23.33;;;3.50;;
71896;SDS011;59767;51.344;12.362;2023-02-01T05:36:24;21.20;;;3.50;;
71896;SDS011;59767;51.344;12.362;2023-02-01T05:39:29;17.75;;;2.90;;
71896;SDS011;59767;51.344;12.362;2023-02-01T05:42:33;22.38;;;3.28;;
71896;SDS011;59767;51.344;12.362;2023-02-01T05:45:37;19.23;;;2.80;;
71896;SDS011;59767;51.344;12.362;2023-02-01T05:48:41;23.45;;;3.08;;
71896;SDS011;59767;51.344;12.362;2023-02-01T05:51:46;18.60;;;3.28;;
71896;SDS011;59767;51.344;12.362;2023-02-01T05:54:51;23.58;;;3.90;;
71896;SDS011;59767;51.344;12.362;2023-02-01T05:57:56;17.98;;;3.15;;
71896;SDS011;59767;51.344;12.362;2023-02-01T06:01:00;20.50;;;3.30;;
71896;SDS011;59767;51.344;12.362;2023-02-01T06:04:06;14.70;;;2.90;;
71896;SDS011;59767;51.344;12.362;2023-02-01T06:07:10;20.40;;;2.88;;
71896;SDS011;59767;51.344;12.362;2023-02-01T06:10:15;17.80;;;3.40;;
71896;SDS011;59767;51.344;12.362;2023-02-01T06:13:21;18.67;;;2.92;;
71896;SDS011;59767;51.344;12.362;2023-02-01T06:16:25;22.98;;;2.88;;
71896;SDS011;59767;51.344;12.362;2023-02-01T06:19:29;21.52;;;3.05;;
71896;SDS011;59767;51.344;12.362;2023-02-01T06:22:33;19.30;;;3.13;;
71896;SDS011;59767;51.344;12.362;2023-02-01T06:25:39;16.40;;;2.90;;
71896;SDS011;59767;51.344;12.362;2023-02-01T06:28:44;19.90;;;3.35;;
71896;SDS011;59767;51.344;12.362;2023-02-01T06:31:47;24.70;;;3.08;;
71896;SDS011;59767;51.344;12.362;2023-02-01T06:34:52;25.88;;;3.42;;
71896;SDS011;59767;51.344;12.362;2023-02-01T06:37:56;21.17;;;3.20;;
71896;SDS011;59767;51.344;12.362;2023-02-01T06:41:02;21.88;;;3.40;;
71896;SDS011;59767;51.344;12.362;2023-02-01T06:44:07;23.15;;;3.30;;
71896;SDS011;59767;51.344;12.362;2023-02-01T06:47:11;22.63;;;3.17;;
71896;SDS011;59767;51.344;12.362;2023-02-01T06:50:15;21.35;;;3.30;;
71896;SDS011;59767;51.344;12.362;2023-02-01T06:53:20;19.95;;;3.20;;
71896;SDS011;59767;51.344;12.362;2023-02-01T06:56:24;18.80;;;3.20;;
71896;SDS011;59767;51.344;12.362;2023-02-01T06:59:29;15.65;;;3.13;;
71896;SDS011;59767;51.344;12.362;2023-02-01T07:02:33;17.42;;;3.10;;
71896;SDS011;59767;51.344;12.362;2023-02-01T07:05:37;20.70;;;3.72;;
71896;SDS011;59767;51.344;12.362;2023-02-01T07:08:41;20.30;;;2.88;;
71896;SDS011;59767;51.344;12.362;2023-02-01T07:11:45;20.00;;;3.35;;
71896;SDS011;59767;51.344;12.362;2023-02-01T07:14:50;20.23;;;3.20;;
71896;SDS011;59767;51.344;12.362;2023-02-01T07:17:54;21.67;;;3.20;;
71896;SDS011;59767;51.344;12.362;2023-02-01T07:20:59;20.80;;;3.45;;
71896;SDS011;59767;51.344;12.362;2023-02-01T07:24:03;22.70;;;3.63;;
71896;SDS011;59767;51.344;12.362;2023-02-01T07:27:08;22.67;;;3.67;;
71896;SDS011;59767;51.344;12.362;2023-02-01T07:30:12;15.88;;;3.20;;
71896;SDS011;59767;51.344;12.362;2023-02-01T07:33:18;18.27;;;2.90;;
71896;SDS011;59767;51.344;12.362;2023-02-01T07:36:23;20.90;;;3.10;;
71896;SDS011;59767;51.344;12.362;2023-02-01T07:39:28;15.15;;;3.08;;
71896;SDS011;59767;51.344;12.362;2023-02-01T07:42:32;23.13;;;2.70;;
71896;SDS011;59767;51.344;12.362;2023-02-01T07:45:36;24.83;;;3.60;;
71896;SDS011;59767;51.344;12.362;2023-02-01T07:48:41;24.05;;;3.50;;
71896;SDS011;59767;51.344;12.362;2023-02-01T07:51:44;15.80;;;2.80;;
71896;SDS011;59767;51.344;12.362;2023-02-01T07:54:49;22.25;;;3.42;;
71896;SDS011;59767;51.344;12.362;2023-02-01T07:57:56;20.40;;;3.25;;
71896;SDS011;59767;51.344;12.362;2023-02-01T08:01:02;17.85;;;2.65;;
71896;SDS011;59767;51.344;12.362;2023-02-01T08:04:26;21.95;;;3.58;;
71896;SDS011;59767;51.344;12.362;2023-02-01T08:07:30;17.92;;;3.20;;
71896;SDS011;59767;51.344;12.362;2023-02-01T08:10:34;17.33;;;3.10;;
71896;SDS011;59767;51.344;12.362;2023-02-01T08:13:38;16.52;;;2.88;;
71896;SDS011;59767;51.344;12.362;2023-02-01T08:16:43;20.92;;;3.60;;
71896;SDS011;59767;51.344;12.362;2023-02-01T08:19:47;25.42;;;3.25;;
71896;SDS011;59767;51.344;12.362;2023-02-01T08:22:52;23.27;;;3.92;;
71896;SDS011;59767;51.344;12.362;2023-02-01T08:29:13;17.70;;;3.00;;
71896;SDS011;59767;51.344;12.362;2023-02-01T08:32:18;21.48;;;3.50;;
71896;SDS011;59767;51.344;12.362;2023-02-01T08:35:22;17.85;;;3.17;;
71896;SDS011;59767;51.344;12.362;2023-02-01T08:38:45;23.15;;;3.38;;
71896;SDS011;59767;51.344;12.362;2023-02-01T08:41:50;14.73;;;2.97;;
71896;SDS011;59767;51.344;12.362;2023-02-01T08:45:14;16.02;;;3.00;;
71896;SDS011;59767;51.344;12.362;2023-02-01T08:48:18;19.98;;;3.55;;
71896;SDS011;59767;51.344;12.362;2023-02-01T08:51:22;17.13;;;2.88;;
71896;SDS011;59767;51.344;12.362;2023-02-01T08:54:26;19.83;;;3.63;;
71896;SDS011;59767;51.344;12.362;2023-02-01T08:57:31;15.68;;;2.85;;
71896;SDS011;59767;51.344;12.362;2023-02-01T09:00:35;17.48;;;2.85;;
71896;SDS011;59767;51.344;12.362;2023-02-01T09:03:40;22.02;;;4.65;;
71896;SDS011;59767;51.344;12.362;2023-02-01T09:06:45;17.38;;;3.60;;
71896;SDS011;59767;51.344;12.362;2023-02-01T09:09:49;19.83;;;3.10;;
71896;SDS011;59767;51.344;12.362;2023-02-01T09:12:53;21.77;;;3.40;;
71896;SDS011;59767;51.344;12.362;2023-02-01T09:15:58;17.42;;;3.50;;
71896;SDS011;59767;51.344;12.362;2023-02-01T09:19:03;16.40;;;3.17;;
71896;SDS011;59767;51.344;12.362;2023-02-01T09:22:27;22.55;;;3.92;;
71896;SDS011;59767;51.344;12.362;2023-02-01T09:25:32;20.92;;;3.72;;
71896;SDS011;59767;51.344;12.362;2023-02-01T09:28:36;18.77;;;3.03;;
71896;SDS011;59767;51.344;12.362;2023-02-01T09:31:40;20.25;;;3.35;;
71896;SDS011;59767;51.344;12.362;2023-02-01T09:35:00;18.67;;;3.28;;
71896;SDS011;59767;51.344;12.362;2023-02-01T09:38:04;14.88;;;3.00;;
71896;SDS011;59767;51.344;12.362;2023-02-01T09:47:55;19.52;;;3.47;;
71896;SDS011;59767;51.344;12.362;2023-02-01T09:51:06;17.00;;;3.30;;
71896;SDS011;59767;51.344;12.362;2023-02-01T09:54:19;20.67;;;3.72;;
71896;SDS011;59767;51.344;12.362;2023-02-01T09:57:28;16.10;;;3.03;;
71896;SDS011;59767;51.344;12.362;2023-02-01T10:00:37;16.88;;;3.40;;
71896;SDS011;59767;51.344;12.362;2023-02-01T10:03:43;19.33;;;3.47;;
71896;SDS011;59767;51.344;12.362;2023-02-01T10:10:11;22.15;;;3.88;;
71896;SDS011;59767;51.344;12.362;2023-02-01T10:13:39;16.75;;;3.53;;
71896;SDS011;59767;51.344;12.362;2023-02-01T10:17:12;15.40;;;3.38;;
71896;SDS011;59767;51.344;12.362;2023-02-01T10:20:41;15.23;;;3.03;;
71896;SDS011;59767;51.344;12.362;2023-02-01T10:27:21;15.70;;;2.97;;
71896;SDS011;59767;51.344;12.362;2023-02-01T10:30:29;20.25;;;3.42;;
71896;SDS011;59767;51.344;12.362;2023-02-01T10:33:42;15.27;;;2.92;;
71896;SDS011;59767;51.344;12.362;2023-02-01T10:36:55;18.10;;;2.85;;
71896;SDS011;59767;51.344;12.362;2023-02-01T10:43:16;20.90;;;3.22;;
71896;SDS011;59767;51.344;12.362;2023-02-01T10:46:22;14.23;;;2.50;;
71896;SDS011;59767;51.344;12.362;2023-02-01T10:49:35;18.55;;;2.70;;
71896;SDS011;59767;51.344;12.362;2023-02-01T10:52:52;13.95;;;2.47;;
71896;SDS011;59767;51.344;12.362;2023-02-01T10:56:08;12.60;;;2.47;;
71896;SDS011;59767;51.344;12.362;2023-02-01T10:59:17;14.60;;;2.53;;
71896;SDS011;59767;51.344;12.362;2023-02-01T11:02:31;14.38;;;2.40;;
71896;SDS011;59767;51.344;12.362;2023-02-01T11:05:45;12.82;;;2.65;;
71896;SDS011;59767;51.344;12.362;2023-02-01T11:08:54;18.08;;;2.90;;
71896;SDS011;59767;51.344;12.362;2023-02-01T11:11:59;14.77;;;2.45;;
71896;SDS011;59767;51.344;12.362;2023-02-01T11:15:14;12.57;;;2.20;;
71896;SDS011;59767;51.344;12.362;2023-02-01T11:18:20;15.77;;;2.30;;
71896;SDS011;59767;51.344;12.362;2023-02-01T11:21:31;14.25;;;2.85;;
71896;SDS011;59767;51.344;12.362;2023-02-01T11:24:37;18.30;;;2.53;;
71896;SDS011;59767;51.344;12.362;2023-02-01T11:27:44;16.48;;;2.22;;
71896;SDS011;59767;51.344;12.362;2023-02-01T11:31:02;15.65;;;2.42;;
71896;SDS011;59767;51.344;12.362;2023-02-01T11:34:11;16.25;;;2.88;;
71896;SDS011;59767;51.344;12.362;2023-02-01T11:40:35;16.45;;;2.70;;
71896;SDS011;59767;51.344;12.362;2023-02-01T11:47:31;17.02;;;3.47;;
71896;SDS011;59767;51.344;12.362;2023-02-01T11:50:52;16.08;;;2.40;;
71896;SDS011;59767;51.344;12.362;2023-02-01T11:54:20;16.98;;;2.20;;
71896;SDS011;59767;51.344;12.362;2023-02-01T12:17:42;16.77;;;2.63;;
71896;SDS011;59767;51.344;12.362;2023-02-01T12:21:03;12.32;;;2.53;;
71896;SDS011;59767;51.344;12.362;2023-02-01T12:24:30;15.48;;;2.63;;
71896;SDS011;59767;51.344;12.362;2023-02-01T12:27:55;19.80;;;3.15;;
71896;SDS011;59767;51.344;12.362;2023-02-01T12:34:59;14.40;;;2.70;;
71896;SDS011;59767;51.344;12.362;2023-02-01T12:45:26;14.15;;;2.40;;
71896;SDS011;59767;51.344;12.362;2023-02-01T12:48:41;14.57;;;2.28;;
71896;SDS011;59767;51.344;12.362;2023-02-01T12:51:58;13.80;;;2.10;;
71896;SDS011;59767;51.344;12.362;2023-02-01T12:58:50;16.08;;;2.33;;
71896;SDS011;59767;51.344;12.362;2023-02-01T13:01:56;17.98;;;2.65;;
71896;SDS011;59767;51.344;12.362;2023-02-01T13:08:24;15.85;;;2.40;;
71896;SDS011;59767;51.344;12.362;2023-02-01T13:11:35;15.02;;;2.35;;
71896;SDS011;59767;51.344;12.362;2023-02-01T13:14:46;21.27;;;3.28;;
71896;SDS011;59767;51.344;12.362;2023-02-01T13:17:57;14.10;;;2.08;;
71896;SDS011;59767;51.344;12.362;2023-02-01T13:21:15;12.30;;;1.80;;
71896;SDS011;59767;51.344;12.362;2023-02-01T13:27:34;11.75;;;2.25;;
71896;SDS011;59767;51.344;12.362;2023-02-01T13:34:29;16.48;;;2.20;;
71896;SDS011;59767;51.344;12.362;2023-02-01T13:37:59;19.25;;;2.50;;
71896;SDS011;59767;51.344;12.362;2023-02-01T13:48:03;14.55;;;2.33;;
71896;SDS011;59767;51.344;12.362;2023-02-01T13:51:10;21.90;;;2.80;;
71896;SDS011;59767;51.344;12.362;2023-02-01T13:57:37;15.63;;;2.30;;
71896;SDS011;59767;51.344;12.362;2023-02-01T14:00:44;14.70;;;2.50;;
71896;SDS011;59767;51.344;12.362;2023-02-01T14:03:50;17.95;;;2.70;;
71896;SDS011;59767;51.344;12.362;2023-02-01T14:06:55;14.70;;;2.90;;
71896;SDS011;59767;51.344;12.362;2023-02-01T14:10:45;16.45;;;2.95;;
71896;SDS011;59767;51.344;12.362;2023-02-01T14:13:44;13.60;;;2.40;;
71896;SDS011;59767;51.344;12.362;2023-02-01T14:20:36;20.67;;;2.88;;
71896;SDS011;59767;51.344;12.362;2023-02-01T14:23:40;19.70;;;2.55;;
71896;SDS011;59767;51.344;12.362;2023-02-01T14:30:15;12.20;;;2.35;;
71896;SDS011;59767;51.344;12.362;2023-02-01T14:33:21;16.50;;;2.70;;
71896;SDS011;59767;51.344;12.362;2023-02-01T14:36:38;23.17;;;3.35;;
71896;SDS011;59767;51.344;12.362;2023-02-01T14:39:51;18.27;;;3.28;;
71896;SDS011;59767;51.344;12.362;2023-02-01T14:42:59;19.45;;;2.70;;
71896;SDS011;59767;51.344;12.362;2023-02-01T14:46:03;15.38;;;2.78;;
71896;SDS011;59767;51.344;12.362;2023-02-01T14:49:07;14.18;;;2.88;;
71896;SDS011;59767;51.344;12.362;2023-02-01T14:52:14;17.10;;;2.95;;
71896;SDS011;59767;51.344;12.362;2023-02-01T14:55:24;16.15;;;2.63;;
71896;SDS011;59767;51.344;12.362;2023-02-01T15:01:54;17.27;;;2.55;;
71896;SDS011;59767;51.344;12.362;2023-02-01T15:05:01;18.90;;;2.63;;
71896;SDS011;59767;51.344;12.362;2023-02-01T15:08:14;17.42;;;2.80;;
71896;SDS011;59767;51.344;12.362;2023-02-01T15:11:22;15.35;;;3.08;;
71896;SDS011;59767;51.344;12.362;2023-02-01T15:14:27;18.98;;;3.30;;
71896;SDS011;59767;51.344;12.362;2023-02-01T15:17:32;12.48;;;2.40;;
71896;SDS011;59767;51.344;12.362;2023-02-01T15:20:38;19.92;;;2.90;;
71896;SDS011;59767;51.344;12.362;2023-02-01T15:27:35;11.60;;;2.42;;
71896;SDS011;59767;51.344;12.362;2023-02-01T15:30:50;15.85;;;2.78;;
71896;SDS011;59767;51.344;12.362;2023-02-01T15:34:02;13.25;;;2.35;;
71896;SDS011;59767;51.344;12.362;2023-02-01T15:37:07;15.35;;;2.85;;
71896;SDS011;59767;51.344;12.362;2023-02-01T15:43:15;18.88;;;3.05;;
71896;SDS011;59767;51.344;12.362;2023-02-01T15:49:40;16.75;;;2.90;;
71896;SDS011;59767;51.344;12.362;2023-02-01T15:52:47;17.10;;;2.47;;
71896;SDS011;59767;51.344;12.362;2023-02-01T15:55:54;14.65;;;2.67;;
71896;SDS011;59767;51.344;12.362;2023-02-01T15:59:04;15.23;;;2.90;;
71896;SDS011;59767;51.344;12.362;2023-02-01T16:05:34;11.32;;;2.20;;
71896;SDS011;59767;51.344;12.362;2023-02-01T16:08:49;9.38;;;1.50;;
71896;SDS011;59767;51.344;12.362;2023-02-01T16:15:02;2.80;;;0.45;;
71896;SDS011;59767;51.344;12.362;2023-02-01T16:18:06;6.18;;;0.80;;
71896;SDS011;59767;51.344;12.362;2023-02-01T16:21:11;2.08;;;0.70;;
71896;SDS011;59767;51.344;12.362;2023-02-01T16:24:16;4.22;;;0.80;;
71896;SDS011;59767;51.344;12.362;2023-02-01T16:27:20;3.67;;;1.20;;
71896;SDS011;59767;51.344;12.362;2023-02-01T16:30:26;3.97;;;1.00;;
71896;SDS011;59767;51.344;12.362;2023-02-01T16:33:30;4.80;;;1.35;;
71896;SDS011;59767;51.344;12.362;2023-02-01T16:36:35;6.18;;;1.30;;
71896;SDS011;59767;51.344;12.362;2023-02-01T16:39:39;2.95;;;1.00;;
71896;SDS011;59767;51.344;12.362;2023-02-01T16:42:43;8.75;;;3.25;;
71896;SDS011;59767;51.344;12.362;2023-02-01T16:45:50;5.75;;;1.50;;
71896;SDS011;59767;51.344;12.362;2023-02-01T16:48:58;12.25;;;2.28;;
71896;SDS011;59767;51.344;12.362;2023-02-01T16:52:03;8.02;;;2.15;;
71896;SDS011;59767;51.344;12.362;2023-02-01T16:55:12;3.50;;;0.90;;
71896;SDS011;59767;51.344;12.362;2023-02-01T16:58:17;6.65;;;1.90;;
71896;SDS011;59767;51.344;12.362;2023-02-01T17:01:22;6.97;;;2.13;;
71896;SDS011;59767;51.344;12.362;2023-02-01T17:04:27;5.65;;;1.45;;
71896;SDS011;59767;51.344;12.362;2023-02-01T17:07:32;7.10;;;2.03;;
71896;SDS011;59767;51.344;12.362;2023-02-01T17:10:36;6.32;;;1.63;;
71896;SDS011;59767;51.344;12.362;2023-02-01T17:13:40;4.47;;;1.52;;
71896;SDS011;59767;51.344;12.362;2023-02-01T17:16:45;4.68;;;1.45;;
71896;SDS011;59767;51.344;12.362;2023-02-01T17:19:52;5.95;;;1.90;;
71896;SDS011;59767;51.344;12.362;2023-02-01T17:22:57;5.32;;;1.40;;
71896;SDS011;59767;51.344;12.362;2023-02-01T17:26:01;6.93;;;1.35;;
71896;SDS011;59767;51.344;12.362;2023-02-01T17:29:06;8.77;;;1.52;;
71896;SDS011;59767;51.344;12.362;2023-02-01T17:32:17;6.85;;;1.67;;
71896;SDS011;59767;51.344;12.362;2023-02-01T17:35:24;5.93;;;1.35;;
71896;SDS011;59767;51.344;12.362;2023-02-01T17:38:30;4.53;;;1.10;;
71896;SDS011;59767;51.344;12.362;2023-02-01T17:41:35;4.80;;;1.05;;
71896;SDS011;59767;51.344;12.362;2023-02-01T17:44:39;4.85;;;1.73;;
71896;SDS011;59767;51.344;12.362;2023-02-01T17:47:44;6.95;;;1.73;;
71896;SDS011;59767;51.344;12.362;2023-02-01T17:50:49;7.13;;;1.63;;
71896;SDS011;59767;51.344;12.362;2023-02-01T17:53:57;4.30;;;1.30;;
71896;SDS011;59767;51.344;12.362;2023-02-01T17:57:02;6.03;;;1.40;;
71896;SDS011;59767;51.344;12.362;2023-02-01T18:00:08;2.47;;;0.80;;
71896;SDS011;59767;51.344;12.362;2023-02-01T18:03:18;4.13;;;1.20;;
71896;SDS011;59767;51.344;12.362;2023-02-01T18:06:26;4.60;;;1.02;;
71896;SDS011;59767;51.344;12.362;2023-02-01T18:09:30;9.40;;;1.73;;
71896;SDS011;59767;51.344;12.362;2023-02-01T18:12:34;5.00;;;1.27;;
71896;SDS011;59767;51.344;12.362;2023-02-01T18:15:40;4.03;;;1.13;;
71896;SDS011;59767;51.344;12.362;2023-02-01T18:18:45;3.08;;;0.93;;
71896;SDS011;59767;51.344;12.362;2023-02-01T18:21:50;3.72;;;1.23;;
71896;SDS011;59767;51.344;12.362;2023-02-01T18:24:55;4.43;;;1.30;;
71896;SDS011;59767;51.344;12.362;2023-02-01T18:28:00;5.25;;;1.48;;
71896;SDS011;59767;51.344;12.362;2023-02-01T18:31:04;4.80;;;1.60;;
71896;SDS011;59767;51.344;12.362;2023-02-01T18:34:09;6.70;;;1.60;;
71896;SDS011;59767;51.344;12.362;2023-02-01T18:37:17;5.78;;;1.77;;
71896;SDS011;59767;51.344;12.362;2023-02-01T18:40:26;5.40;;;1.45;;
71896;SDS011;59767;51.344;12.362;2023-02-01T18:43:32;7.20;;;1.60;;
71896;SDS011;59767;51.344;12.362;2023-02-01T18:46:37;4.57;;;1.50;;
71896;SDS011;59767;51.344;12.362;2023-02-01T18:49:41;5.28;;;1.50;;
71896;SDS011;59767;51.344;12.362;2023-02-01T18:52:45;4.32;;;1.30;;
71896;SDS011;59767;51.344;12.362;2023-02-01T18:55:50;5.93;;;1.60;;
71896;SDS011;59767;51.344;12.362;2023-02-01T18:58:56;7.03;;;1.52;;
71896;SDS011;59767;51.344;12.362;2023-02-01T19:02:02;5.55;;;1.90;;
71896;SDS011;59767;51.344;12.362;2023-02-01T19:05:07;8.48;;;1.95;;
71896;SDS011;59767;51.344;12.362;2023-02-01T19:08:13;10.60;;;2.60;;
71896;SDS011;59767;51.344;12.362;2023-02-01T19:11:17;4.72;;;1.70;;
71896;SDS011;59767;51.344;12.362;2023-02-01T19:14:21;6.97;;;2.03;;
71896;SDS011;59767;51.344;12.362;2023-02-01T19:17:26;7.82;;;1.83;;
71896;SDS011;59767;51.344;12.362;2023-02-01T19:20:31;8.18;;;1.90;;
71896;SDS011;59767;51.344;12.362;2023-02-01T19:23:39;7.55;;;1.30;;
71896;SDS011;59767;51.344;12.362;2023-02-01T19:26:44;8.80;;;1.63;;
71896;SDS011;59767;51.344;12.362;2023-02-01T19:29:49;6.50;;;1.30;;
71896;SDS011;59767;51.344;12.362;2023-02-01T19:32:54;5.70;;;1.30;;
71896;SDS011;59767;51.344;12.362;2023-02-01T19:35:58;4.95;;;1.17;;
71896;SDS011;59767;51.344;12.362;2023-02-01T19:39:04;4.47;;;1.10;;
71896;SDS011;59767;51.344;12.362;2023-02-01T19:42:08;8.13;;;1.20;;
71896;SDS011;59767;51.344;12.362;2023-02-01T19:45:12;9.05;;;1.45;;
71896;SDS011;59767;51.344;12.362;2023-02-01T19:48:18;4.40;;;1.08;;
71896;SDS011;59767;51.344;12.362;2023-02-01T19:51:22;3.83;;;1.13;;
71896;SDS011;59767;51.344;12.362;2023-02-01T19:54:27;5.60;;;1.48;;
71896;SDS011;59767;51.344;12.362;2023-02-01T19:57:31;5.28;;;1.20;;
71896;SDS011;59767;51.344;12.362;2023-02-01T20:00:35;7.18;;;1.30;;
71896;SDS011;59767;51.344;12.362;2023-02-01T20:03:40;6.28;;;1.10;;
71896;SDS011;59767;51.344;12.362;2023-02-01T20:06:45;6.93;;;1.40;;
71896;SDS011;59767;51.344;12.362;2023-02-01T20:09:52;10.45;;;1.60;;
71896;SDS011;59767;51.344;12.362;2023-02-01T20:12:56;9.68;;;1.38;;
71896;SDS011;59767;51.344;12.362;2023-02-01T20:16:01;6.90;;;1.60;;
71896;SDS011;59767;51.344;12.362;2023-02-01T20:19:05;9.13;;;1.40;;
71896;SDS011;59767;51.344;12.362;2023-02-01T20:22:09;11.07;;;1.60;;
71896;SDS011;59767;51.344;12.362;2023-02-01T20:25:14;9.18;;;1.50;;
71896;SDS011;59767;51.344;12.362;2023-02-01T20:28:18;8.35;;;1.50;;